Flight Track Log - Related Links

Times and Time Zones

All times are in EDT time to prevent confusion due to time zone crossing. See the UAL4553 flight status page for this flight to view local times or setup timezone preferences in your user account.

Time Position Orientation Groundspeed Altitude Reporting Facility
EDT Latitude Longitude Course Direction KTS MPH feet Rate Location/Type
Fri 11:58:27 AM 39.2833 -94.7333 84° East 153 176 1,600  Level Kansas City TRACON
Fri 11:59:03 AM 39.2667 -94.7333 180° South 172 198 2,800 1,813 Climbing Kansas City TRACON
Fri 12:00:03 PM 39.2000 -94.7167 169° South 241 277 4,500 2,250 Climbing Kansas City TRACON
Fri 12:01:00 PM 39.3609 -94.3130 80° East  Level Estimated
Fri 12:01:03 PM 39.1500 -94.6667 142° Southeast 265 305 7,300  Level Kansas City TRACON
Fri 12:02:00 PM 39.3816 -94.1792 82° East  Level Estimated
Fri 12:02:03 PM 39.1500 -94.5667 90° East 284 327 8,800  Level Kansas City TRACON
Fri 12:03:00 PM 39.4022 -94.0453 84° East  Level Estimated
Fri 12:03:21 PM 39.1547 -94.4372 87° East 289 333 10,600  Level Kansas City Center
Fri 12:04:24 PM 39.1864 -94.3431 67° East 307 353 12,200 1,306 Climbing Kansas City Center
Fri 12:05:25 PM 39.2442 -94.2292 57° Northeast 341 392 13,300 1,024 Climbing Kansas City Center
Fri 12:06:27 PM 39.3000 -94.1231 56° Northeast 370 426 14,300 1,016 Climbing Kansas City Center
Fri 12:07:29 PM 39.3658 -93.9939 57° Northeast 387 445 15,400 968 Climbing Kansas City Center
Fri 12:08:31 PM 39.3975 -93.8644 72° East 394 453 16,300 871 Climbing Kansas City Center
Fri 12:09:33 PM 39.4164 -93.7322 79° East 406 467 17,200 968 Climbing Kansas City Center
Fri 12:10:35 PM 39.4369 -93.5583 81° East 411 473 18,300 968 Climbing Kansas City Center
Fri 12:11:37 PM 39.4533 -93.4125 82° East 412 474 19,200 919 Climbing Kansas City Center
Fri 12:12:39 PM 39.4731 -93.2703 80° East 410 472 20,200 960 Climbing Kansas City Center
Fri 12:13:42 PM 39.4900 -93.1239 81° East 414 476 21,200 1,008 Climbing Kansas City Center
Fri 12:14:44 PM 39.5086 -92.9419 82° East 422 486 22,300 1,016 Climbing Kansas City Center
Fri 12:15:46 PM 39.5242 -92.7939 82° East 424 488 23,300 919 Climbing Kansas City Center
Fri 12:16:48 PM 39.5422 -92.6486 81° East 420 483 24,200 919 Climbing Kansas City Center
Fri 12:17:50 PM 39.5583 -92.5061 82° East 412 474 25,200 968 Climbing Kansas City Center
Fri 12:18:52 PM 39.5739 -92.3608 82° East 412 474 26,200 1,016 Climbing Kansas City Center
Fri 12:19:54 PM 39.5939 -92.1856 82° East 414 476 27,300 1,016 Climbing Kansas City Center
Fri 12:20:56 PM 39.6097 -92.0389 82° East 415 478 28,300 912 Climbing Kansas City Center
Fri 12:21:59 PM 39.6258 -91.8906 82° East 418 481 29,200 919 Climbing Kansas City Center
Fri 12:23:00 PM 39.6408 -91.7431 82° East 419 482 30,200 1,073 Climbing Kansas City Center
Fri 12:24:02 PM 39.6592 -91.5647 82° East 419 482 31,400 1,016 Climbing Kansas City Center
Fri 12:25:04 PM 39.6753 -91.4161 82° East 420 483 32,300 919 Climbing Kansas City Center
Fri 12:26:06 PM 39.6908 -91.2642 82° East 417 480 33,300 919 Climbing Kansas City Center
Fri 12:27:08 PM 39.7067 -91.1147 82° East 417 480 34,200 823 Climbing Kansas City Center
Fri 12:28:10 PM 39.7206 -90.9675 83° East 414 476 35,000 387 Climbing Kansas City Center
Fri 12:29:12 PM 39.7350 -90.8144 83° East 421 484 35,000  Level Kansas City Center
Fri 12:30:14 PM 39.7525 -90.6292 83° East 443 510 35,000  Level Kansas City Center
Fri 12:31:16 PM 39.7694 -90.4606 82° East 462 532 35,000  Level Kansas City Center
Fri 12:32:18 PM 39.7856 -90.2864 83° East 478 550 35,000  Level Kansas City Center
Fri 12:33:20 PM 39.8008 -90.1086 84° East 489 563 35,000  Level Kansas City Center
Fri 12:34:22 PM 39.8167 -89.9331 83° East 492 566 35,000  Level Kansas City Center
Fri 12:35:24 PM 39.8350 -89.7250 83° East 488 562 35,000  Level Kansas City Center
Fri 12:36:26 PM 39.8408 -89.5508 87° East 485 558 35,000  Level Kansas City Center
Fri 12:37:29 PM 39.8411 -89.3756 90° East 486 559 35,000  Level Kansas City Center
Fri 12:38:31 PM 39.8414 -89.1989 90° East 489 563 35,000  Level Kansas City Center
Fri 12:39:33 PM 39.8419 -89.0242 90° East 487 560 35,000  Level Kansas City Center
Fri 12:40:35 PM 39.8419 -88.8150 90° East 486 559 35,000  Level Kansas City Center
Fri 12:41:37 PM 39.8417 -88.6386 90° East 487 560 35,000  Level Kansas City Center
Fri 12:42:39 PM 39.8431 -88.4628 89° East 487 560 35,000  Level Kansas City Center
Fri 12:43:41 PM 39.8436 -88.2869 90° East 488 562 35,000  Level Kansas City Center
Fri 12:44:43 PM 39.8428 -88.0994 90° East 486 559 35,000  Level Kansas City Center
Fri 12:45:30 PM 39.8383 -87.9572 92° East 483 556 35,000  Level Indianapolis Center
Fri 12:46:19 PM 39.8375 -87.8186 90° East 482 555 35,000  Level Indianapolis Center
Fri 12:47:21 PM 39.8589 -87.6486 81° East 477 549 35,000  Level Indianapolis Center
Fri 12:48:23 PM 39.8806 -87.4800 80° East 476 548 35,000  Level Indianapolis Center
Fri 12:49:25 PM 39.9039 -87.3106 80° East 476 548 35,000  Level Indianapolis Center
Fri 12:50:27 PM 39.9261 -87.1433 80° East 473 544 35,000  Level Indianapolis Center
Fri 12:51:29 PM 39.9522 -86.9414 80° East 472 543 35,000  Level Indianapolis Center
Fri 12:52:31 PM 39.9742 -86.7725 80° East 471 542 35,000  Level Indianapolis Center
Fri 12:53:33 PM 39.9958 -86.6044 80° East 471 542 35,000  Level Indianapolis Center
Fri 12:54:35 PM 40.0169 -86.4356 81° East 469 540 35,000  Level Indianapolis Center
Fri 12:55:37 PM 40.0383 -86.2669 81° East 468 539 35,000  Level Indianapolis Center
Fri 12:56:39 PM 40.0578 -86.1000 81° East 464 534 35,000  Level Indianapolis Center
Fri 12:57:41 PM 40.0775 -85.9331 81° East 463 533 35,000  Level Indianapolis Center
Fri 12:58:43 PM 40.0967 -85.7678 81° East 462 532 35,000  Level Indianapolis Center
Fri 12:59:45 PM 40.1219 -85.5697 80° East 461 531 35,000  Level Indianapolis Center
Fri 01:00:47 PM 40.1733 -85.4225 65° Northeast 451 519 35,000  Level Indianapolis Center
Fri 01:01:49 PM 40.2253 -85.2783 65° Northeast 443 510 35,000  Level Indianapolis Center
Fri 01:02:51 PM 40.2761 -85.1328 65° Northeast 443 510 35,000  Level Indianapolis Center
Fri 01:03:53 PM 40.3294 -84.9881 64° Northeast 442 509 35,000  Level Indianapolis Center
Fri 01:04:56 PM 40.3811 -84.8436 65° Northeast 439 505 35,000  Level Indianapolis Center
Fri 01:05:58 PM 40.4433 -84.6700 65° Northeast 439 505 35,000  Level Indianapolis Center
Fri 01:07:00 PM 40.4956 -84.5250 65° Northeast 441 507 35,000  Level Indianapolis Center
Fri 01:08:02 PM 40.5467 -84.3789 65° Northeast 441 507 35,000  Level Indianapolis Center
Fri 01:09:04 PM 40.5992 -84.2350 64° Northeast 440 506 35,000  Level Indianapolis Center
Fri 01:10:06 PM 40.6500 -84.0897 65° Northeast 440 506 35,000  Level Indianapolis Center
Fri 01:11:08 PM 40.7106 -83.9156 65° Northeast 439 505 35,000  Level Indianapolis Center
Fri 01:12:10 PM 40.7575 -83.7794 65° Northeast 439 505 35,000  Level Indianapolis Center
Fri 01:13:12 PM 40.8078 -83.6319 66° East 438 504 35,000  Level Indianapolis Center
Fri 01:14:14 PM 40.8589 -83.4844 65° Northeast 438 504 35,000  Level Indianapolis Center
Fri 01:15:07 PM 40.9089 -83.3364 66° East 438 504 35,000  Level Cleveland Center
Fri 01:16:09 PM 40.9586 -83.1886 66° East 437 503 35,000  Level Cleveland Center
Fri 01:17:11 PM 41.0083 -83.0414 66° East 436 502 35,000  Level Cleveland Center
Fri 01:18:13 PM 41.0581 -82.8947 66° East 435 501 35,000  Level Cleveland Center
Fri 01:19:15 PM 41.1061 -82.7469 67° East 433 498 35,000  Level Cleveland Center
Fri 01:20:18 PM 41.1558 -82.6000 66° East 433 498 35,000  Level Cleveland Center
Fri 01:21:20 PM 41.2122 -82.4281 66° East 431 496 35,000  Level Cleveland Center
Fri 01:22:22 PM 41.2614 -82.2811 66° East 431 496 35,000  Level Cleveland Center
Fri 01:23:24 PM 41.2956 -82.1244 74° East 440 506 35,000  Level Cleveland Center
Fri 01:24:26 PM 41.3147 -81.9811 80° East 443 510 35,000  Level Cleveland Center
Fri 01:25:28 PM 41.3411 -81.7858 80° East 446 513 35,000  Level Cleveland Center
Fri 01:26:30 PM 41.3625 -81.6231 80° East 448 516 35,000  Level Cleveland Center
Fri 01:27:32 PM 41.3847 -81.4575 80° East 452 520 35,000  Level Cleveland Center
Fri 01:28:34 PM 41.4067 -81.2900 80° East 448 516 35,000  Level Cleveland Center
Fri 01:29:36 PM 41.4278 -81.1233 80° East 450 518 35,000  Level Cleveland Center
Fri 01:30:38 PM 41.4489 -80.9586 80° East 447 514 35,000  Level Cleveland Center
Fri 01:31:41 PM 41.4697 -80.7919 80° East 451 519 35,000  Level Cleveland Center
Fri 01:32:43 PM 41.4933 -80.5989 81° East 450 518 35,000  Level Cleveland Center
Fri 01:33:45 PM 41.5142 -80.4339 80° East 449 517 35,000  Level Cleveland Center
Fri 01:34:47 PM 41.5325 -80.2769 81° East 447 514 35,000  Level Cleveland Center
Fri 01:35:49 PM 41.5522 -80.1164 81° East 439 505 35,000  Level Cleveland Center
Fri 01:36:51 PM 41.5731 -79.9464 81° East 444 511 35,000  Level Cleveland Center
Fri 01:37:53 PM 41.5919 -79.7839 81° East 444 511 35,000  Level Cleveland Center
Fri 01:38:55 PM 41.6144 -79.5897 81° East 443 510 35,000  Level Cleveland Center
Fri 01:39:57 PM 41.6325 -79.4272 81° East 445 512 35,000  Level Cleveland Center
Fri 01:40:59 PM 41.6517 -79.2653 81° East 444 511 35,000  Level Cleveland Center
Fri 01:42:01 PM 41.6450 -79.0994 93° East 455 524 35,000  Level Cleveland Center
Fri 01:43:03 PM 41.6269 -78.9314 98° East 458 527 35,000  Level Cleveland Center
Fri 01:44:06 PM 41.6067 -78.7633 99° East 457 526 35,000  Level Cleveland Center
Fri 01:45:08 PM 41.5831 -78.5617 99° East 459 528 35,000  Level Cleveland Center
Fri 01:46:10 PM 41.5642 -78.3936 98° East 457 526 35,000 -629 Level Cleveland Center
Fri 01:47:12 PM 41.5439 -78.2258 99° East 458 527 33,700 -1,758 Descending Cleveland Center
Fri 01:47:49 PM 41.5297 -78.1147 100° East 462 532 32,100 -1,670 Descending New York Center
Fri 01:48:49 PM 41.5089 -77.9433 99° East 462 532 31,000 -545 Descending New York Center
Fri 01:49:50 PM 41.4853 -77.7803 101° East 457 526 31,000  Level New York Center
Fri 01:50:48 PM 41.4636 -77.6175 100° East 457 526 31,000  Level New York Center
Fri 01:51:49 PM 41.4408 -77.4683 101° East 457 526 31,000  Level New York Center
Fri 01:52:50 PM 41.4161 -77.3136 102° East 451 519 31,000  Level New York Center
Fri 01:53:51 PM 41.3917 -77.1508 101° East 445 512 31,000 -153 Level New York Center
Fri 01:54:48 PM 41.3689 -76.9883 101° East 440 506 30,700 -872 Descending New York Center
Fri 01:55:48 PM 41.3442 -76.8258 101° East 440 506 29,300 -843 Descending New York Center
Fri 01:56:49 PM 41.3083 -76.6650 106° East 440 506 29,000 -397 Descending New York Center
Fri 01:57:49 PM 41.2586 -76.4922 111° Southeast 453 521 28,500 -893 Descending New York Center
Fri 01:58:50 PM 41.2142 -76.3314 110° East 459 528 27,200 -1,714 Descending New York Center
Fri 01:59:48 PM 41.1736 -76.1708 109° East 459 528 25,100 -2,797 Descending New York Center
Fri 02:00:48 PM 41.1306 -76.0158 110° East 454 522 21,700 -3,295 Descending New York Center
Fri 02:01:50 PM 41.0969 -75.8811 108° East 434 499 18,400 -2,902 Descending New York Center
Fri 02:02:50 PM 41.0592 -75.7433 110° East 415 478 15,800 -2,695 Descending New York Center
Fri 02:03:48 PM 41.0211 -75.6031 110° East 383 441 13,100 -1,866 Descending New York Center
Fri 02:04:49 PM 40.9847 -75.4742 110° East 376 433 12,100 -1,230 Descending New York Center
Fri 02:05:50 PM 40.9517 -75.3619 111° Southeast 371 427 10,600 -1,160 Descending New York Center
Fri 02:06:48 PM 40.9222 -75.2556 110° East 334 384 9,800 -1,322 Descending New York Center
Fri 02:07:48 PM 40.8931 -75.1494 110° East 284 327 8,000 -1,388 Descending New York Center
Fri 02:08:49 PM 40.8669 -75.0597 111° Southeast 263 303 7,000 -492 Descending New York Center
Fri 02:09:50 PM 40.8431 -74.9733 110° East 253 291 7,000 -403 Level New York Center
Fri 02:10:48 PM 40.8461 -74.8911 87° East 246 283 6,200 -508 Descending New York Center
Fri 02:11:48 PM 40.8475 -74.7897 89° East 246 283 6,000 -50 Descending New York Center
Fri 02:12:49 PM 40.8503 -74.7078 87° East 246 283 6,100 50 Climbing New York Center
Fri 02:13:48 PM 40.8194 -74.6292 117° Southeast 220 253 6,100 -65 Level New York Center
Fri 02:14:21 PM 40.7833 -74.6000 149° Southeast 266 306 6,000  Descending New York TRACON
Fri 02:15:21 PM 40.7000 -74.5667 163° South 269 310 6,100 -200 Climbing New York TRACON
Fri 02:16:21 PM 40.6333 -74.5333 159° South 265 305 5,600 -550 Descending New York TRACON
Fri 02:17:21 PM 40.5667 -74.5333 180° South 265 305 5,000 -400 Descending New York TRACON
Fri 02:18:21 PM 40.5000 -74.5167 169° South 266 306 4,800 -450 Descending New York TRACON
Fri 02:19:21 PM 40.4333 -74.4667 150° Southeast 254 292 4,100 -350 Descending New York TRACON
Fri 02:20:21 PM 40.4000 -74.4167 131° Southeast 193 222 4,100 -350 Level New York TRACON
Fri 02:21:21 PM 40.4167 -74.3500 72° East 187 215 3,400 -500 Descending New York TRACON
Fri 02:22:21 PM 40.4667 -74.3167 27° Northeast 180 207 3,100 -150 Descending New York TRACON
Fri 02:23:21 PM 40.5000 -74.2833 37° Northeast 180 207 3,100 -100 Level New York TRACON
Fri 02:24:21 PM 40.5500 -74.2500 27° Northeast 180 207 2,900 -571 Descending New York TRACON
Fri 02:25:27 PM 40.6000 -74.2167 27° Northeast 176 203 1,900 -857 Descending New York TRACON
Fri 02:26:27 PM 40.6333 -74.2000 21° North 131 151 1,100 -700 Descending New York TRACON
Fri 02:27:27 PM 40.6667 -74.1833 21° North 128 147 500 -600 Descending New York TRACON

Login

Don't have an account? Register now (free) for customized features, flight alerts, and more!